Time;durP1;ratioP1;P1;durP2;ratioP2;P2;SDS_P1;SDS_P2;PMS_P1;PMS_P2;Temp;Humidity;BMP_temperature;BMP_pressure;BME280_temperature;BME280_humidity;BME280_pressure;Samples;Min_cycle;Max_cycle;Signal;HPM_P1;HPM_P2
2024/04/06 00:01:46;;;;;;;4.18;1.52;;;;;;;;;;4947902;28;95406;-77
2024/04/06 00:04:12;;;;;;;4.38;1.67;;;;;;;;;;4950060;28;95098;-77
2024/04/06 00:06:38;;;;;;;3.15;1.50;;;;;;;;;;4948057;28;92963;-77
2024/04/06 00:09:03;;;;;;;3.75;1.55;;;;;;;;;;4931228;28;99892;-78
2024/04/06 00:11:29;;;;;;;4.75;1.70;;;;;;;;;;4930317;28;93343;-77
2024/04/06 00:13:54;;;;;;;6.07;1.60;;;;;;;;;;4930134;28;92959;-78
2024/04/06 00:16:20;;;;;;;3.55;1.52;;;;;;;;;;4930474;28;93115;-77
2024/04/06 00:18:46;;;;;;;3.15;1.40;;;;;;;;;;4931592;28;92809;-77
2024/04/06 00:21:11;;;;;;;5.00;1.60;;;;;;;;;;4932805;28;94480;-77
2024/04/06 00:23:37;;;;;;;3.53;1.40;;;;;;;;;;4947080;28;92837;-78
2024/04/06 00:26:02;;;;;;;3.88;1.50;;;;;;;;;;4948033;28;95739;-77
2024/04/06 00:28:28;;;;;;;3.70;1.38;;;;;;;;;;4949827;28;92755;-77
2024/04/06 00:30:54;;;;;;;4.82;1.98;;;;;;;;;;4950466;28;92705;-78
2024/04/06 00:33:20;;;;;;;2.97;1.33;;;;;;;;;;4945161;28;93169;-77
2024/04/06 00:35:45;;;;;;;3.08;1.33;;;;;;;;;;4946371;28;92805;-77
2024/04/06 00:38:11;;;;;;;4.43;1.63;;;;;;;;;;4949596;28;92880;-78
2024/04/06 00:40:36;;;;;;;4.22;1.70;;;;;;;;;;4949532;28;93167;-77
2024/04/06 00:43:03;;;;;;;4.70;1.30;;;;;;;;;;4953096;28;91769;-77
2024/04/06 00:45:28;;;;;;;4.20;1.50;;;;;;;;;;4950285;28;94357;-77
2024/04/06 00:47:54;;;;;;;3.88;1.75;;;;;;;;;;4949323;28;92743;-77
2024/04/06 00:50:19;;;;;;;4.25;1.52;;;;;;;;;;4948795;28;95503;-77
2024/04/06 00:52:45;;;;;;;4.00;1.50;;;;;;;;;;4949096;28;93454;-77
2024/04/06 00:55:10;;;;;;;3.85;1.40;;;;;;;;;;4949649;28;92887;-77
2024/04/06 00:57:36;;;;;;;4.85;1.75;;;;;;;;;;4948892;28;92669;-78
2024/04/06 01:00:02;;;;;;;4.00;1.70;;;;;;;;;;4949090;28;92992;-78
2024/04/06 01:02:28;;;;;;;3.97;1.50;;;;;;;;;;4949182;28;92555;-78
2024/04/06 01:04:54;;;;;;;3.40;1.52;;;;;;;;;;4952893;28;93006;-78
2024/04/06 01:07:20;;;;;;;4.35;1.52;;;;;;;;;;4951062;28;92212;-78
2024/04/06 01:09:45;;;;;;;4.60;1.73;;;;;;;;;;4933825;28;92996;-78
2024/04/06 01:12:11;;;;;;;4.53;1.73;;;;;;;;;;4950257;28;92951;-78
2024/04/06 01:14:37;;;;;;;4.13;1.75;;;;;;;;;;4948628;28;95082;-77
2024/04/06 01:17:03;;;;;;;3.78;1.50;;;;;;;;;;4950423;28;95301;-78
2024/04/06 01:19:28;;;;;;;3.45;1.50;;;;;;;;;;4950563;28;95704;-75
2024/04/06 01:21:54;;;;;;;3.88;1.60;;;;;;;;;;4953206;28;92509;-77
2024/04/06 01:24:25;;;;;;;3.88;1.65;;;;;;;;;;4961049;28;92778;-76
2024/04/06 01:26:51;;;;;;;3.10;1.50;;;;;;;;;;4953553;28;92807;-76
2024/04/06 01:29:17;;;;;;;2.88;1.60;;;;;;;;;;4950023;28;92801;-76
2024/04/06 01:31:43;;;;;;;2.85;1.48;;;;;;;;;;4929022;28;93304;-76
2024/04/06 01:34:09;;;;;;;4.05;1.50;;;;;;;;;;4913284;28;92550;-76
2024/04/06 01:36:35;;;;;;;4.43;1.70;;;;;;;;;;4922448;28;94156;-76
2024/04/06 01:39:00;;;;;;;3.65;1.83;;;;;;;;;;4947197;28;95470;-77
2024/04/06 01:41:26;;;;;;;3.03;1.45;;;;;;;;;;4940690;28;93201;-76
2024/04/06 01:43:51;;;;;;;3.40;1.50;;;;;;;;;;4927953;28;94724;-76
2024/04/06 01:46:17;;;;;;;3.17;1.50;;;;;;;;;;4931868;28;93122;-76
2024/04/06 01:48:43;;;;;;;3.10;1.35;;;;;;;;;;4944033;28;92648;-76
2024/04/06 01:51:08;;;;;;;3.72;1.40;;;;;;;;;;4947883;28;93508;-77
2024/04/06 01:53:34;;;;;;;3.47;1.60;;;;;;;;;;4948882;28;92952;-75
2024/04/06 01:56:00;;;;;;;3.47;1.60;;;;;;;;;;4949347;28;93275;-77
2024/04/06 01:58:25;;;;;;;3.95;1.65;;;;;;;;;;4931904;28;93140;-76
2024/04/06 02:00:51;;;;;;;4.65;1.77;;;;;;;;;;4948318;28;92809;-77
2024/04/06 02:03:17;;;;;;;3.03;1.17;;;;;;;;;;4947316;28;94974;-77
2024/04/06 02:05:42;;;;;;;3.65;1.42;;;;;;;;;;4932125;28;94149;-78
2024/04/06 02:08:08;;;;;;;3.38;1.50;;;;;;;;;;4952086;28;92810;-77
2024/04/06 02:10:33;;;;;;;4.53;1.50;;;;;;;;;;4949142;28;93093;-77
2024/04/06 02:12:59;;;;;;;4.47;1.50;;;;;;;;;;4948770;28;92466;-78
2024/04/06 02:15:24;;;;;;;3.45;1.50;;;;;;;;;;4943986;28;92910;-78
2024/04/06 02:17:50;;;;;;;3.72;1.40;;;;;;;;;;4928920;28;92772;-77
2024/04/06 02:20:15;;;;;;;2.85;1.40;;;;;;;;;;4947413;28;92013;-78
2024/04/06 02:22:41;;;;;;;2.83;1.30;;;;;;;;;;4948174;28;93056;-77
2024/04/06 02:25:07;;;;;;;2.80;1.60;;;;;;;;;;4948229;28;93164;-77
2024/04/06 02:27:33;;;;;;;4.07;1.55;;;;;;;;;;4929730;28;95109;-78
2024/04/06 02:29:59;;;;;;;2.78;1.40;;;;;;;;;;4951180;28;95676;-78
2024/04/06 02:32:26;;;;;;;2.40;1.30;;;;;;;;;;4947745;28;92466;-77
2024/04/06 02:34:52;;;;;;;2.58;1.30;;;;;;;;;;4948003;28;92816;-78
2024/04/06 02:37:17;;;;;;;3.42;1.33;;;;;;;;;;4949858;28;93255;-77
2024/04/06 02:39:42;;;;;;;3.20;1.45;;;;;;;;;;4944150;28;92794;-78
2024/04/06 02:42:08;;;;;;;2.42;1.40;;;;;;;;;;4914315;28;94018;-77
2024/04/06 02:44:34;;;;;;;2.67;1.20;;;;;;;;;;4944432;28;92365;-77
2024/04/06 02:46:59;;;;;;;3.10;1.20;;;;;;;;;;4951876;28;93372;-77
2024/04/06 02:49:24;;;;;;;3.55;1.50;;;;;;;;;;4951829;28;92739;-77
2024/04/06 02:51:50;;;;;;;2.75;1.15;;;;;;;;;;4952237;28;95572;-77
2024/04/06 02:54:16;;;;;;;2.25;1.40;;;;;;;;;;4951997;28;95066;-77
2024/04/06 02:56:41;;;;;;;3.30;1.33;;;;;;;;;;4950867;28;92958;-78
2024/04/06 02:59:07;;;;;;;3.45;1.45;;;;;;;;;;4936593;28;93077;-77
2024/04/06 03:01:32;;;;;;;3.20;1.50;;;;;;;;;;4931494;28;93051;-77
2024/04/06 03:03:58;;;;;;;3.17;1.38;;;;;;;;;;4931040;28;93168;-77
2024/04/06 03:06:23;;;;;;;4.70;1.50;;;;;;;;;;4931528;28;93058;-77
2024/04/06 03:08:49;;;;;;;3.13;1.50;;;;;;;;;;4932706;28;92379;-77
2024/04/06 03:11:14;;;;;;;3.20;1.20;;;;;;;;;;4931551;28;92860;-77
2024/04/06 03:13:40;;;;;;;2.67;1.20;;;;;;;;;;4935695;28;92512;-77
2024/04/06 03:16:06;;;;;;;2.90;1.38;;;;;;;;;;4932917;28;96740;-77
2024/04/06 03:18:31;;;;;;;2.83;1.33;;;;;;;;;;4946828;28;92851;-77
2024/04/06 03:20:57;;;;;;;3.58;1.48;;;;;;;;;;4950992;28;92779;-77
2024/04/06 03:23:23;;;;;;;2.97;1.35;;;;;;;;;;4950851;28;93287;-77
2024/04/06 03:25:48;;;;;;;3.25;1.40;;;;;;;;;;4951217;28;93008;-77
2024/04/06 03:28:17;;;;;;;3.08;1.50;;;;;;;;;;4951554;28;92784;-77
2024/04/06 03:30:43;;;;;;;3.45;1.60;;;;;;;;;;4950405;28;93197;-77
2024/04/06 03:33:08;;;;;;;2.42;1.30;;;;;;;;;;4954503;28;91808;-77
2024/04/06 03:35:34;;;;;;;2.78;1.60;;;;;;;;;;4950546;28;93192;-77
2024/04/06 03:37:59;;;;;;;3.42;1.55;;;;;;;;;;4950486;28;92428;-77
2024/04/06 03:40:25;;;;;;;3.25;1.38;;;;;;;;;;4949247;28;95415;-76
2024/04/06 03:42:57;;;;;;;1.80;1.10;;;;;;;;;;4949417;28;92396;-77
2024/04/06 03:45:23;;;;;;;3.60;1.40;;;;;;;;;;4948798;28;92955;-78
2024/04/06 03:47:48;;;;;;;2.63;1.25;;;;;;;;;;4949148;28;94020;-77
2024/04/06 03:50:14;;;;;;;4.00;1.35;;;;;;;;;;4950659;28;92818;-77
2024/04/06 03:52:40;;;;;;;2.13;1.33;;;;;;;;;;4950102;28;92470;-77
2024/04/06 03:55:05;;;;;;;3.65;1.17;;;;;;;;;;4940026;28;92985;-77
2024/04/06 03:57:31;;;;;;;3.63;1.40;;;;;;;;;;4929841;28;92052;-77
2024/04/06 03:59:56;;;;;;;2.30;1.20;;;;;;;;;;4929664;28;92558;-76
2024/04/06 04:02:22;;;;;;;3.17;1.25;;;;;;;;;;4929763;28;93103;-77
2024/04/06 04:04:47;;;;;;;2.30;1.10;;;;;;;;;;4929122;28;94790;-76
2024/04/06 04:07:13;;;;;;;2.88;1.30;;;;;;;;;;4930848;28;95120;-75
2024/04/06 04:09:38;;;;;;;5.20;1.45;;;;;;;;;;4930750;28;96724;-77
2024/04/06 04:12:04;;;;;;;2.90;1.10;;;;;;;;;;4950788;28;92969;-76
2024/04/06 04:14:29;;;;;;;2.33;1.20;;;;;;;;;;4950504;28;93105;-77
2024/04/06 04:16:55;;;;;;;2.75;1.20;;;;;;;;;;4952755;28;93034;-76
2024/04/06 04:19:20;;;;;;;2.75;1.25;;;;;;;;;;4949952;28;92899;-78
2024/04/06 04:21:46;;;;;;;2.20;1.23;;;;;;;;;;4949217;28;92589;-78
2024/04/06 04:24:11;;;;;;;4.13;1.50;;;;;;;;;;4949978;28;92765;-78
2024/04/06 04:26:37;;;;;;;2.58;1.20;;;;;;;;;;4950007;28;92539;-78
2024/04/06 04:29:03;;;;;;;2.97;1.27;;;;;;;;;;4948600;28;96293;-78
2024/04/06 04:31:28;;;;;;;2.70;1.48;;;;;;;;;;4949740;28;92410;-78
2024/04/06 04:33:54;;;;;;;2.90;1.40;;;;;;;;;;4949664;28;97754;-75
2024/04/06 04:36:19;;;;;;;2.85;1.23;;;;;;;;;;4947631;28;92899;-78
2024/04/06 04:38:45;;;;;;;3.53;1.40;;;;;;;;;;4953385;28;92978;-78
2024/04/06 04:41:10;;;;;;;2.78;1.15;;;;;;;;;;4949486;28;92908;-78
2024/04/06 04:43:36;;;;;;;2.72;1.30;;;;;;;;;;4949121;28;93467;-77
2024/04/06 04:46:01;;;;;;;2.10;1.10;;;;;;;;;;4950235;28;93250;-78
2024/04/06 04:48:33;;;;;;;3.08;1.20;;;;;;;;;;4948996;28;93481;-78
2024/04/06 04:50:59;;;;;;;3.15;1.40;;;;;;;;;;4949243;28;93060;-78
2024/04/06 04:53:25;;;;;;;2.95;1.20;;;;;;;;;;4948236;28;95379;-78
2024/04/06 04:55:50;;;;;;;1.52;1.02;;;;;;;;;;4931772;28;93444;-77
2024/04/06 04:58:16;;;;;;;2.40;1.20;;;;;;;;;;4932755;28;92779;-77
2024/04/06 05:00:41;;;;;;;3.22;1.40;;;;;;;;;;4951705;28;92753;-78
2024/04/06 05:03:07;;;;;;;1.77;1.08;;;;;;;;;;4932578;28;92788;-77
2024/04/06 05:05:33;;;;;;;2.45;1.20;;;;;;;;;;4948832;28;92805;-78
2024/04/06 05:07:58;;;;;;;2.42;1.17;;;;;;;;;;4932456;28;93131;-77
2024/04/06 05:10:24;;;;;;;3.53;1.17;;;;;;;;;;4949889;28;92084;-77
2024/04/06 05:12:50;;;;;;;1.50;1.10;;;;;;;;;;4949148;28;92492;-78
2024/04/06 05:15:15;;;;;;;2.28;1.38;;;;;;;;;;4931345;28;96055;-78
2024/04/06 05:17:41;;;;;;;1.70;1.15;;;;;;;;;;4946427;28;94981;-77
2024/04/06 05:20:06;;;;;;;2.40;1.15;;;;;;;;;;4933152;28;95207;-78
2024/04/06 05:22:32;;;;;;;3.28;1.50;;;;;;;;;;4929222;28;92550;-77
2024/04/06 05:24:57;;;;;;;2.00;1.05;;;;;;;;;;4928334;28;93325;-77
2024/04/06 05:27:24;;;;;;;2.45;1.20;;;;;;;;;;4927554;28;93511;-78
2024/04/06 05:29:50;;;;;;;3.25;1.40;;;;;;;;;;4929536;28;93175;-78
2024/04/06 05:32:15;;;;;;;3.50;1.30;;;;;;;;;;4933153;28;92891;-78
2024/04/06 05:34:41;;;;;;;2.58;1.20;;;;;;;;;;4933042;28;93438;-78
2024/04/06 05:37:07;;;;;;;3.20;1.23;;;;;;;;;;4949466;28;92697;-78
2024/04/06 05:39:32;;;;;;;2.72;1.30;;;;;;;;;;4948640;28;92969;-78
2024/04/06 05:41:58;;;;;;;2.15;1.20;;;;;;;;;;4950356;28;95520;-78
2024/04/06 05:44:23;;;;;;;3.40;1.38;;;;;;;;;;4932669;28;97846;-79
2024/04/06 05:46:49;;;;;;;3.00;1.30;;;;;;;;;;4950451;28;93184;-78
2024/04/06 05:49:14;;;;;;;1.60;1.10;;;;;;;;;;4951186;28;92833;-78
2024/04/06 05:51:40;;;;;;;2.85;1.17;;;;;;;;;;4951144;28;92923;-78
2024/04/06 05:54:05;;;;;;;1.95;1.15;;;;;;;;;;4953489;28;93043;-78
2024/04/06 05:56:31;;;;;;;2.45;1.20;;;;;;;;;;4951944;28;92500;-78
2024/04/06 05:58:56;;;;;;;3.13;1.30;;;;;;;;;;4950049;28;93143;-78
2024/04/06 06:01:22;;;;;;;2.10;1.15;;;;;;;;;;4951139;28;92795;-78
2024/04/06 06:03:48;;;;;;;2.65;1.40;;;;;;;;;;4941906;28;92549;-78
2024/04/06 06:06:13;;;;;;;2.80;1.10;;;;;;;;;;4926996;28;95489;-78
2024/04/06 06:08:39;;;;;;;3.25;1.30;;;;;;;;;;4946485;28;92995;-78
2024/04/06 06:11:05;;;;;;;2.63;1.23;;;;;;;;;;4947373;28;92956;-78
2024/04/06 06:13:31;;;;;;;3.15;1.10;;;;;;;;;;4947974;28;93437;-78
2024/04/06 06:15:57;;;;;;;2.67;1.27;;;;;;;;;;4947873;28;93011;-77
2024/04/06 06:18:22;;;;;;;2.05;1.20;;;;;;;;;;4947807;28;93955;-78
2024/04/06 06:20:48;;;;;;;2.95;1.30;;;;;;;;;;4949386;28;93083;-78
2024/04/06 06:23:13;;;;;;;3.72;1.38;;;;;;;;;;4948004;28;92171;-78
2024/04/06 06:25:39;;;;;;;2.67;1.15;;;;;;;;;;4951228;28;92537;-78
2024/04/06 06:28:05;;;;;;;2.45;1.10;;;;;;;;;;4948151;28;92465;-78
2024/04/06 06:30:30;;;;;;;2.92;1.25;;;;;;;;;;4946444;28;94968;-78
2024/04/06 06:32:57;;;;;;;3.75;1.50;;;;;;;;;;4931367;28;93046;-78
2024/04/06 06:35:23;;;;;;;3.05;1.30;;;;;;;;;;4948339;28;92996;-77
2024/04/06 06:37:48;;;;;;;2.83;1.30;;;;;;;;;;4946801;28;92556;-77
2024/04/06 06:40:14;;;;;;;3.13;1.42;;;;;;;;;;4931797;28;93560;-78
2024/04/06 06:42:39;;;;;;;2.90;1.40;;;;;;;;;;4931098;28;92946;-77
2024/04/06 06:45:05;;;;;;;2.50;1.30;;;;;;;;;;4947956;28;92750;-77
2024/04/06 06:47:34;;;;;;;2.83;1.50;;;;;;;;;;4950466;28;92393;-78
2024/04/06 06:50:01;;;;;;;2.50;1.30;;;;;;;;;;4930195;28;95347;-78
2024/04/06 06:52:26;;;;;;;3.20;1.45;;;;;;;;;;4945522;28;93308;-78
2024/04/06 06:54:52;;;;;;;3.95;1.70;;;;;;;;;;4929451;28;95129;-76
2024/04/06 06:57:17;;;;;;;2.78;1.38;;;;;;;;;;4947421;28;95701;-77
2024/04/06 06:59:43;;;;;;;3.65;1.40;;;;;;;;;;4928157;28;94541;-77
2024/04/06 07:02:09;;;;;;;2.75;1.40;;;;;;;;;;4947423;28;92558;-78
2024/04/06 07:04:36;;;;;;;2.85;1.27;;;;;;;;;;4947539;28;92960;-77
2024/04/06 07:07:01;;;;;;;2.72;1.20;;;;;;;;;;4930896;28;93076;-78
2024/04/06 07:09:28;;;;;;;2.80;1.20;;;;;;;;;;4950466;28;92585;-78
2024/04/06 07:11:53;;;;;;;2.63;1.30;;;;;;;;;;4946889;28;93329;-77
2024/04/06 07:14:19;;;;;;;2.80;1.30;;;;;;;;;;4948579;28;92890;-78
2024/04/06 07:16:45;;;;;;;3.08;1.30;;;;;;;;;;4949413;28;92495;-78
2024/04/06 07:19:11;;;;;;;2.47;1.40;;;;;;;;;;4945676;28;95317;-77
2024/04/06 07:21:36;;;;;;;3.75;1.50;;;;;;;;;;4946220;28;92800;-77
2024/04/06 07:24:02;;;;;;;3.58;1.08;;;;;;;;;;4933066;28;95523;-78
2024/04/06 07:26:28;;;;;;;4.47;1.35;;;;;;;;;;4949499;28;92994;-77
2024/04/06 07:28:54;;;;;;;2.67;1.30;;;;;;;;;;4954068;28;93083;-77
2024/04/06 07:31:19;;;;;;;3.13;1.20;;;;;;;;;;4950607;28;93106;-77
2024/04/06 07:33:45;;;;;;;3.22;1.75;;;;;;;;;;4936778;28;92959;-77
2024/04/06 07:36:11;;;;;;;3.80;1.20;;;;;;;;;;4945239;28;92778;-77
2024/04/06 07:38:36;;;;;;;2.63;1.40;;;;;;;;;;4950293;28;92933;-77
2024/04/06 07:41:03;;;;;;;3.30;1.38;;;;;;;;;;4950241;28;92751;-77
2024/04/06 07:43:29;;;;;;;3.03;1.40;;;;;;;;;;4947568;28;100890;-76
2024/04/06 07:45:55;;;;;;;3.13;1.23;;;;;;;;;;4950818;28;93130;-78
2024/04/06 07:48:21;;;;;;;3.53;1.45;;;;;;;;;;4949786;28;92603;-77
2024/04/06 07:50:47;;;;;;;2.70;1.33;;;;;;;;;;4953126;28;93257;-78
2024/04/06 07:53:12;;;;;;;4.30;1.33;;;;;;;;;;4949817;28;92558;-77
2024/04/06 07:55:38;;;;;;;2.60;1.20;;;;;;;;;;4948988;28;93175;-78
2024/04/06 07:58:03;;;;;;;2.60;1.30;;;;;;;;;;4949935;28;93911;-78
2024/04/06 08:00:29;;;;;;;3.88;1.48;;;;;;;;;;4950950;28;91764;-77
2024/04/06 08:02:55;;;;;;;3.03;1.30;;;;;;;;;;4934288;28;93023;-77
2024/04/06 08:05:20;;;;;;;3.92;1.27;;;;;;;;;;4950218;28;93157;-77
2024/04/06 08:07:46;;;;;;;2.58;1.30;;;;;;;;;;4947829;28;94949;-77
2024/04/06 08:10:15;;;;;;;3.50;1.40;;;;;;;;;;4949727;28;95253;-78
2024/04/06 08:12:44;;;;;;;2.53;1.20;;;;;;;;;;4952816;28;92591;-77
2024/04/06 08:15:10;;;;;;;2.97;1.30;;;;;;;;;;4933502;28;94382;-78
2024/04/06 08:17:39;;;;;;;3.45;1.30;;;;;;;;;;4932530;28;93304;-79
2024/04/06 08:20:05;;;;;;;2.92;1.30;;;;;;;;;;4950183;28;92517;-77
2024/04/06 08:22:31;;;;;;;2.85;1.40;;;;;;;;;;4933245;28;93660;-78
2024/04/06 08:24:57;;;;;;;3.42;1.50;;;;;;;;;;4949964;28;92314;-77
2024/04/06 08:27:22;;;;;;;2.90;1.30;;;;;;;;;;4949377;28;92532;-77
2024/04/06 08:29:48;;;;;;;1.88;1.10;;;;;;;;;;4948951;28;93193;-77
2024/04/06 08:32:13;;;;;;;3.55;1.20;;;;;;;;;;4947422;28;96085;-77
2024/04/06 08:34:39;;;;;;;4.35;1.52;;;;;;;;;;4952510;28;94064;-76
2024/04/06 08:37:04;;;;;;;2.45;1.30;;;;;;;;;;4948694;28;93656;-78
2024/04/06 08:39:30;;;;;;;1.95;1.08;;;;;;;;;;4949146;28;94396;-77
2024/04/06 08:41:56;;;;;;;2.88;1.20;;;;;;;;;;4948951;28;94817;-77
2024/04/06 08:44:42;;;;;;;2.88;1.20;;;;;;;;;;4948877;28;93650;-77
2024/04/06 08:47:07;;;;;;;;;;;;;;;;;;4949786;28;92526;-77
2024/04/06 08:49:35;;;;;;;3.33;1.20;;;;;;;;;;4951430;28;92116;-78
2024/04/06 08:52:01;;;;;;;3.97;1.30;;;;;;;;;;4944948;28;93288;-76
2024/04/06 08:54:27;;;;;;;2.85;1.10;;;;;;;;;;4930064;28;92789;-76
2024/04/06 08:56:53;;;;;;;3.03;1.20;;;;;;;;;;4931195;28;94889;-76
2024/04/06 08:59:18;;;;;;;3.25;1.38;;;;;;;;;;4929873;28;92803;-77
2024/04/06 09:01:44;;;;;;;2.47;1.10;;;;;;;;;;4929995;28;92756;-76
2024/04/06 09:04:09;;;;;;;1.73;1.20;;;;;;;;;;4929933;28;93058;-76
2024/04/06 09:06:38;;;;;;;3.90;1.17;;;;;;;;;;4929494;28;92573;-76
2024/04/06 09:09:06;;;;;;;2.92;1.30;;;;;;;;;;4929542;28;93283;-76
2024/04/06 09:11:32;;;;;;;1.75;0.95;;;;;;;;;;4928898;28;93408;-76
2024/04/06 09:14:02;;;;;;;2.63;1.20;;;;;;;;;;4929576;28;92268;-77
2024/04/06 09:16:28;;;;;;;2.90;1.10;;;;;;;;;;4937322;28;93068;-78
2024/04/06 09:18:53;;;;;;;2.40;1.20;;;;;;;;;;4939859;28;93590;-77
2024/04/06 09:21:19;;;;;;;4.15;1.20;;;;;;;;;;4928074;28;95101;-76
2024/04/06 09:23:48;;;;;;;2.20;1.00;;;;;;;;;;4912020;28;96096;-76
2024/04/06 09:26:19;;;;;;;3.10;1.27;;;;;;;;;;4929237;28;92724;-78
2024/04/06 09:28:46;;;;;;;2.75;1.20;;;;;;;;;;4902925;28;95386;-77
2024/04/06 09:31:15;;;;;;;2.50;1.20;;;;;;;;;;4910432;28;95505;-77
2024/04/06 09:33:41;;;;;;;3.50;1.17;;;;;;;;;;4928575;28;92904;-78
2024/04/06 09:36:10;;;;;;;2.70;1.20;;;;;;;;;;4926872;28;93327;-77
2024/04/06 09:38:35;;;;;;;3.13;1.17;;;;;;;;;;4951685;28;92557;-77
2024/04/06 09:41:01;;;;;;;3.15;1.30;;;;;;;;;;4931921;28;95215;-77
2024/04/06 09:43:27;;;;;;;2.53;1.23;;;;;;;;;;4932394;28;93450;-77
2024/04/06 09:45:52;;;;;;;2.85;1.10;;;;;;;;;;4929031;28;95408;-77
2024/04/06 09:48:18;;;;;;;3.33;1.30;;;;;;;;;;4948378;28;95221;-77
2024/04/06 09:50:44;;;;;;;3.05;1.25;;;;;;;;;;4948454;28;93113;-77
2024/04/06 09:53:12;;;;;;;2.47;1.00;;;;;;;;;;4948663;28;92937;-77
2024/04/06 09:55:39;;;;;;;3.58;1.40;;;;;;;;;;4947110;28;92794;-76
2024/04/06 09:58:06;;;;;;;3.38;1.30;;;;;;;;;;4948664;28;93097;-77
2024/04/06 10:00:32;;;;;;;1.75;1.00;;;;;;;;;;4951721;28;93242;-77
2024/04/06 10:02:59;;;;;;;3.35;1.10;;;;;;;;;;4931891;28;96089;-76
2024/04/06 10:05:36;;;;;;;2.78;1.10;;;;;;;;;;4947936;28;92497;-76
2024/04/06 10:08:02;;;;;;;2.20;1.00;;;;;;;;;;4947431;28;98513;-76
2024/04/06 10:10:31;;;;;;;1.95;1.00;;;;;;;;;;4929747;28;98276;-76
2024/04/06 10:12:57;;;;;;;4.03;1.20;;;;;;;;;;4931999;28;92696;-76
2024/04/06 10:15:23;;;;;;;2.25;1.20;;;;;;;;;;4947793;28;92905;-77
2024/04/06 10:17:49;;;;;;;3.10;1.10;;;;;;;;;;4947103;28;92856;-78
2024/04/06 10:20:21;;;;;;;1.85;1.20;;;;;;;;;;4951591;28;92524;-76
2024/04/06 10:22:54;;;;;;;2.85;1.15;;;;;;;;;;4937834;28;92726;-77
2024/04/06 10:25:27;;;;;;;3.75;1.23;;;;;;;;;;4952795;28;92770;-78
2024/04/06 10:28:24;;;;;;;2.10;1.10;;;;;;;;;;4953836;28;92956;-77
2024/04/06 10:30:50;;;;;;;2.78;1.02;;;;;;;;;;4921651;28;93833;-78
2024/04/06 10:33:16;;;;;;;3.33;1.30;;;;;;;;;;4937349;28;92492;-78
2024/04/06 10:35:41;;;;;;;2.67;1.30;;;;;;;;;;4943054;28;94930;-78
2024/04/06 10:38:07;;;;;;;2.78;1.10;;;;;;;;;;4937418;28;93063;-77
2024/04/06 10:40:37;;;;;;;2.88;1.10;;;;;;;;;;4954338;28;92806;-77
2024/04/06 10:43:02;;;;;;;1.60;0.90;;;;;;;;;;4950690;28;92925;-76
2024/04/06 10:45:28;;;;;;;2.15;1.10;;;;;;;;;;4951051;28;94190;-77
2024/04/06 10:47:53;;;;;;;2.67;1.20;;;;;;;;;;4930542;28;93307;-77
2024/04/06 10:50:19;;;;;;;3.08;1.10;;;;;;;;;;4948205;28;92983;-77
2024/04/06 10:52:47;;;;;;;4.05;1.00;;;;;;;;;;4948564;28;91925;-78
2024/04/06 10:55:19;;;;;;;2.53;1.15;;;;;;;;;;4949311;28;92901;-76
2024/04/06 10:57:44;;;;;;;1.90;1.20;;;;;;;;;;4949212;28;93663;-77
2024/04/06 11:00:11;;;;;;;1.52;1.00;;;;;;;;;;4949496;28;94878;-77
2024/04/06 11:02:40;;;;;;;2.40;1.00;;;;;;;;;;4951382;28;95915;-77
2024/04/06 11:05:08;;;;;;;1.75;1.00;;;;;;;;;;4951325;28;93879;-77
2024/04/06 11:07:34;;;;;;;2.47;1.02;;;;;;;;;;4953702;28;92663;-77
2024/04/06 11:10:00;;;;;;;3.58;1.10;;;;;;;;;;4953546;28;93029;-77
2024/04/06 11:12:26;;;;;;;1.38;0.90;;;;;;;;;;4934189;28;92849;-78
2024/04/06 11:14:51;;;;;;;2.17;1.02;;;;;;;;;;4950815;28;93075;-77
2024/04/06 11:17:18;;;;;;;1.52;1.00;;;;;;;;;;4951293;28;92890;-77
2024/04/06 11:19:43;;;;;;;3.63;1.10;;;;;;;;;;4949653;28;92906;-77
2024/04/06 11:22:09;;;;;;;3.38;1.10;;;;;;;;;;4950885;28;92425;-77
2024/04/06 11:24:34;;;;;;;1.80;1.00;;;;;;;;;;4949177;28;95602;-76
2024/04/06 11:27:07;;;;;;;2.40;1.00;;;;;;;;;;4946918;28;92727;-77
2024/04/06 11:29:32;;;;;;;2.65;1.10;;;;;;;;;;4933823;28;92894;-77
2024/04/06 11:31:58;;;;;;;2.58;1.00;;;;;;;;;;4934556;28;92672;-77
2024/04/06 11:34:23;;;;;;;2.55;1.30;;;;;;;;;;4953308;28;93095;-77
2024/04/06 11:36:49;;;;;;;2.50;1.10;;;;;;;;;;4935273;28;92861;-78
2024/04/06 11:39:15;;;;;;;2.42;1.00;;;;;;;;;;4934876;28;93245;-77
2024/04/06 11:41:40;;;;;;;2.85;1.10;;;;;;;;;;4923791;28;92818;-78
2024/04/06 11:44:06;;;;;;;1.23;0.90;;;;;;;;;;4913933;28;96374;-77
2024/04/06 11:46:34;;;;;;;1.95;1.08;;;;;;;;;;4931022;28;93119;-79
2024/04/06 11:49:00;;;;;;;2.60;1.17;;;;;;;;;;4944534;28;95378;-79
2024/04/06 11:51:26;;;;;;;2.58;1.10;;;;;;;;;;4950060;28;92807;-76
2024/04/06 11:53:51;;;;;;;2.70;1.10;;;;;;;;;;4949417;28;92900;-77
2024/04/06 11:56:17;;;;;;;4.57;1.10;;;;;;;;;;4949740;28;93595;-79
2024/04/06 11:58:43;;;;;;;3.83;1.00;;;;;;;;;;4950014;28;92506;-77
2024/04/06 12:01:08;;;;;;;3.03;1.10;;;;;;;;;;4950018;28;92895;-79
2024/04/06 12:03:34;;;;;;;1.88;1.00;;;;;;;;;;4950123;28;93236;-79
2024/04/06 12:06:00;;;;;;;3.90;1.05;;;;;;;;;;4951312;28;91786;-77
2024/04/06 12:08:25;;;;;;;1.60;0.90;;;;;;;;;;4950526;28;92577;-78
2024/04/06 12:10:51;;;;;;;1.98;1.00;;;;;;;;;;4952155;28;92975;-77
2024/04/06 12:13:16;;;;;;;1.30;0.93;;;;;;;;;;4948235;28;94999;-76
2024/04/06 12:15:42;;;;;;;2.17;1.05;;;;;;;;;;4948506;28;93024;-77
2024/04/06 12:18:10;;;;;;;1.33;0.98;;;;;;;;;;4949690;28;92703;-79
2024/04/06 12:20:36;;;;;;;1.83;1.00;;;;;;;;;;4949648;28;92753;-79
2024/04/06 12:23:03;;;;;;;2.88;1.00;;;;;;;;;;4948939;28;93218;-77
2024/04/06 12:25:28;;;;;;;2.45;1.17;;;;;;;;;;4949626;28;93218;-77
2024/04/06 12:27:54;;;;;;;1.73;0.82;;;;;;;;;;4948903;28;97880;-77
2024/04/06 12:30:19;;;;;;;3.25;1.10;;;;;;;;;;4950157;28;92488;-77
2024/04/06 12:32:45;;;;;;;2.40;0.90;;;;;;;;;;4952753;28;92817;-79
2024/04/06 12:35:10;;;;;;;2.00;1.00;;;;;;;;;;4949416;28;93067;-79
2024/04/06 12:37:36;;;;;;;3.00;1.27;;;;;;;;;;4946643;28;94933;-78
2024/04/06 12:40:03;;;;;;;2.38;1.10;;;;;;;;;;4949427;28;95579;-79
2024/04/06 12:42:29;;;;;;;2.88;1.13;;;;;;;;;;4949218;28;93016;-77
2024/04/06 12:44:54;;;;;;;2.00;0.98;;;;;;;;;;4932468;28;92888;-77
2024/04/06 12:47:20;;;;;;;1.90;1.00;;;;;;;;;;4949196;28;92537;-77
2024/04/06 12:49:45;;;;;;;1.90;0.90;;;;;;;;;;4948745;28;93182;-79
2024/04/06 12:52:11;;;;;;;1.33;0.90;;;;;;;;;;4948784;28;92923;-79
2024/04/06 12:54:37;;;;;;;1.40;0.85;;;;;;;;;;4936574;28;92829;-77
2024/04/06 12:59:47;;;;;;;1.50;0.90;;;;;;;;;;4931726;28;95674;-79
2024/04/06 13:02:12;;;;;;;2.33;0.88;;;;;;;;;;4946799;28;95659;-79
2024/04/06 13:04:38;;;;;;;1.60;0.88;;;;;;;;;;4948503;28;92670;-79
2024/04/06 13:07:04;;;;;;;1.25;0.88;;;;;;;;;;4948871;28;92780;-78
2024/04/06 13:09:30;;;;;;;1.80;1.00;;;;;;;;;;4948679;28;93117;-78
2024/04/06 13:11:57;;;;;;;1.70;1.00;;;;;;;;;;4913055;28;92778;-77
2024/04/06 13:14:23;;;;;;;2.30;1.00;;;;;;;;;;4930249;28;92704;-78
2024/04/06 13:16:48;;;;;;;3.30;0.95;;;;;;;;;;4951350;28;92977;-80
2024/04/06 13:19:14;;;;;;;2.92;1.17;;;;;;;;;;4949512;28;98901;-78
2024/04/06 13:21:41;;;;;;;1.70;0.90;;;;;;;;;;4949250;28;93078;-77
2024/04/06 13:24:10;;;;;;;1.83;0.80;;;;;;;;;;4928539;28;92896;-78
2024/04/06 13:26:37;;;;;;;1.38;0.82;;;;;;;;;;4913207;28;95419;-79
2024/04/06 13:29:04;;;;;;;1.95;1.10;;;;;;;;;;4948463;28;93636;-78
2024/04/06 13:31:30;;;;;;;3.42;1.08;;;;;;;;;;4948208;28;92677;-77
2024/04/06 13:33:56;;;;;;;2.60;1.10;;;;;;;;;;4931989;28;95076;-79
2024/04/06 13:36:21;;;;;;;1.73;0.90;;;;;;;;;;4928939;28;93082;-78
2024/04/06 13:38:47;;;;;;;2.78;1.00;;;;;;;;;;4932808;28;93039;-80
2024/04/06 13:41:12;;;;;;;2.28;0.82;;;;;;;;;;4913212;28;96226;-78
2024/04/06 13:43:38;;;;;;;2.05;0.95;;;;;;;;;;4912967;28;91954;-80
2024/04/06 13:46:03;;;;;;;2.70;0.95;;;;;;;;;;4928553;28;94143;-79
2024/04/06 13:48:29;;;;;;;1.98;0.90;;;;;;;;;;4936985;28;93352;-79
2024/04/06 13:50:55;;;;;;;2.13;1.00;;;;;;;;;;4947116;28;95320;-79
2024/04/06 13:53:21;;;;;;;1.73;0.90;;;;;;;;;;4948440;28;94674;-80
2024/04/06 13:55:46;;;;;;;1.92;0.75;;;;;;;;;;4947604;28;93068;-79
2024/04/06 13:58:12;;;;;;;1.70;1.00;;;;;;;;;;4951337;28;92666;-79
2024/04/06 14:00:40;;;;;;;1.83;0.90;;;;;;;;;;4948026;28;93139;-78
2024/04/06 14:03:06;;;;;;;1.95;0.90;;;;;;;;;;4948179;28;92898;-80
2024/04/06 14:05:31;;;;;;;1.45;0.90;;;;;;;;;;4931702;28;93562;-79
2024/04/06 14:07:57;;;;;;;1.75;0.80;;;;;;;;;;4948212;28;91833;-78
2024/04/06 14:10:23;;;;;;;0.98;0.80;;;;;;;;;;4948216;28;92674;-78
2024/04/06 14:12:49;;;;;;;1.17;0.88;;;;;;;;;;4932041;28;94140;-79
2024/04/06 14:15:15;;;;;;;1.75;0.90;;;;;;;;;;4946391;28;96051;-79
2024/04/06 14:17:40;;;;;;;1.77;0.85;;;;;;;;;;4947074;28;92911;-78
2024/04/06 14:20:08;;;;;;;2.03;0.90;;;;;;;;;;4950959;28;92507;-79
2024/04/06 14:22:38;;;;;;;2.42;0.90;;;;;;;;;;4944651;28;92947;-79
2024/04/06 14:25:04;;;;;;;1.98;0.90;;;;;;;;;;4928939;28;95740;-79
2024/04/06 14:27:31;;;;;;;2.20;1.00;;;;;;;;;;4927867;28;93047;-78
2024/04/06 14:30:01;;;;;;;2.00;1.02;;;;;;;;;;4912365;28;92684;-78
2024/04/06 14:32:26;;;;;;;2.33;0.90;;;;;;;;;;4930853;28;92789;-78
2024/04/06 14:34:54;;;;;;;2.38;1.00;;;;;;;;;;4951016;28;93474;-79
2024/04/06 14:37:20;;;;;;;1.30;0.90;;;;;;;;;;4951369;28;93166;-79
2024/04/06 14:39:45;;;;;;;2.50;0.90;;;;;;;;;;4949538;28;95155;-78